sensor_id;sensor_type;location;lat;lon;timestamp;P1;durP1;ratioP1;P2;durP2;ratioP2
37409;SDS011;23275;48.914;12.566;2023-07-30T00:00:52;4.85;;;2.63;;
37409;SDS011;23275;48.914;12.566;2023-07-30T00:03:18;6.00;;;2.38;;
37409;SDS011;23275;48.914;12.566;2023-07-30T00:05:51;4.72;;;2.35;;
37409;SDS011;23275;48.914;12.566;2023-07-30T00:08:17;10.10;;;3.63;;
37409;SDS011;23275;48.914;12.566;2023-07-30T00:10:43;6.45;;;2.55;;
37409;SDS011;23275;48.914;12.566;2023-07-30T00:13:08;5.95;;;2.53;;
37409;SDS011;23275;48.914;12.566;2023-07-30T00:15:34;4.30;;;2.35;;
37409;SDS011;23275;48.914;12.566;2023-07-30T00:17:59;5.72;;;2.38;;
37409;SDS011;23275;48.914;12.566;2023-07-30T00:20:25;4.63;;;2.45;;
37409;SDS011;23275;48.914;12.566;2023-07-30T00:22:50;7.07;;;2.40;;
37409;SDS011;23275;48.914;12.566;2023-07-30T00:25:16;6.22;;;2.70;;
37409;SDS011;23275;48.914;12.566;2023-07-30T00:27:41;5.10;;;2.55;;
37409;SDS011;23275;48.914;12.566;2023-07-30T00:30:07;9.15;;;3.00;;
37409;SDS011;23275;48.914;12.566;2023-07-30T00:32:33;4.65;;;2.42;;
37409;SDS011;23275;48.914;12.566;2023-07-30T00:34:58;4.28;;;2.67;;
37409;SDS011;23275;48.914;12.566;2023-07-30T00:37:24;6.30;;;2.58;;
37409;SDS011;23275;48.914;12.566;2023-07-30T00:39:49;7.47;;;2.63;;
37409;SDS011;23275;48.914;12.566;2023-07-30T00:42:15;6.10;;;2.80;;
37409;SDS011;23275;48.914;12.566;2023-07-30T00:44:40;8.38;;;2.78;;
37409;SDS011;23275;48.914;12.566;2023-07-30T00:47:06;6.72;;;2.47;;
37409;SDS011;23275;48.914;12.566;2023-07-30T00:49:32;5.97;;;2.80;;
37409;SDS011;23275;48.914;12.566;2023-07-30T00:51:58;5.40;;;2.33;;
37409;SDS011;23275;48.914;12.566;2023-07-30T00:54:24;6.45;;;2.65;;
37409;SDS011;23275;48.914;12.566;2023-07-30T00:56:50;6.63;;;2.65;;
37409;SDS011;23275;48.914;12.566;2023-07-30T00:59:17;5.35;;;2.53;;
37409;SDS011;23275;48.914;12.566;2023-07-30T01:01:46;4.38;;;2.95;;
37409;SDS011;23275;48.914;12.566;2023-07-30T01:04:12;5.88;;;2.55;;
37409;SDS011;23275;48.914;12.566;2023-07-30T01:06:39;4.90;;;2.38;;
37409;SDS011;23275;48.914;12.566;2023-07-30T01:09:05;5.80;;;2.65;;
37409;SDS011;23275;48.914;12.566;2023-07-30T01:11:30;9.90;;;3.55;;
37409;SDS011;23275;48.914;12.566;2023-07-30T01:13:56;5.97;;;2.80;;
37409;SDS011;23275;48.914;12.566;2023-07-30T01:16:22;8.05;;;2.45;;
37409;SDS011;23275;48.914;12.566;2023-07-30T01:18:48;6.75;;;2.83;;
37409;SDS011;23275;48.914;12.566;2023-07-30T01:21:14;3.92;;;2.58;;
37409;SDS011;23275;48.914;12.566;2023-07-30T01:23:39;4.88;;;2.45;;
37409;SDS011;23275;48.914;12.566;2023-07-30T01:26:08;7.50;;;3.00;;
37409;SDS011;23275;48.914;12.566;2023-07-30T01:28:43;4.03;;;2.60;;
37409;SDS011;23275;48.914;12.566;2023-07-30T01:31:14;8.90;;;2.70;;
37409;SDS011;23275;48.914;12.566;2023-07-30T01:33:41;5.13;;;2.85;;
37409;SDS011;23275;48.914;12.566;2023-07-30T01:36:08;4.80;;;2.72;;
37409;SDS011;23275;48.914;12.566;2023-07-30T01:38:38;5.60;;;2.67;;
37409;SDS011;23275;48.914;12.566;2023-07-30T01:41:05;3.90;;;2.47;;
37409;SDS011;23275;48.914;12.566;2023-07-30T01:43:31;4.97;;;2.78;;
37409;SDS011;23275;48.914;12.566;2023-07-30T01:45:56;5.15;;;2.80;;
37409;SDS011;23275;48.914;12.566;2023-07-30T01:48:22;4.10;;;2.85;;
37409;SDS011;23275;48.914;12.566;2023-07-30T01:50:47;4.68;;;2.65;;
37409;SDS011;23275;48.914;12.566;2023-07-30T01:53:13;5.15;;;2.35;;
37409;SDS011;23275;48.914;12.566;2023-07-30T01:55:39;5.30;;;2.92;;
37409;SDS011;23275;48.914;12.566;2023-07-30T01:58:08;7.35;;;2.92;;
37409;SDS011;23275;48.914;12.566;2023-07-30T02:00:35;6.95;;;2.75;;
37409;SDS011;23275;48.914;12.566;2023-07-30T02:03:00;5.00;;;2.78;;
37409;SDS011;23275;48.914;12.566;2023-07-30T02:05:26;6.28;;;2.83;;
37409;SDS011;23275;48.914;12.566;2023-07-30T02:07:51;6.53;;;2.60;;
37409;SDS011;23275;48.914;12.566;2023-07-30T02:10:17;4.97;;;2.50;;
37409;SDS011;23275;48.914;12.566;2023-07-30T02:12:42;6.45;;;2.65;;
37409;SDS011;23275;48.914;12.566;2023-07-30T02:15:08;8.13;;;2.92;;
37409;SDS011;23275;48.914;12.566;2023-07-30T02:17:34;6.25;;;2.70;;
37409;SDS011;23275;48.914;12.566;2023-07-30T02:19:59;5.85;;;2.90;;
37409;SDS011;23275;48.914;12.566;2023-07-30T02:22:25;8.00;;;3.70;;
37409;SDS011;23275;48.914;12.566;2023-07-30T02:24:50;12.32;;;4.20;;
37409;SDS011;23275;48.914;12.566;2023-07-30T02:27:16;5.55;;;3.28;;
37409;SDS011;23275;48.914;12.566;2023-07-30T02:29:41;8.75;;;3.00;;
37409;SDS011;23275;48.914;12.566;2023-07-30T02:32:07;4.80;;;3.05;;
37409;SDS011;23275;48.914;12.566;2023-07-30T02:34:33;5.53;;;3.55;;
37409;SDS011;23275;48.914;12.566;2023-07-30T02:36:59;10.50;;;3.55;;
37409;SDS011;23275;48.914;12.566;2023-07-30T02:39:24;4.97;;;3.08;;
37409;SDS011;23275;48.914;12.566;2023-07-30T02:41:50;5.95;;;2.55;;
37409;SDS011;23275;48.914;12.566;2023-07-30T02:44:15;6.00;;;2.92;;
37409;SDS011;23275;48.914;12.566;2023-07-30T02:46:41;7.05;;;2.80;;
37409;SDS011;23275;48.914;12.566;2023-07-30T02:49:06;5.28;;;3.42;;
37409;SDS011;23275;48.914;12.566;2023-07-30T02:51:33;6.75;;;3.33;;
37409;SDS011;23275;48.914;12.566;2023-07-30T02:54:00;7.10;;;3.45;;
37409;SDS011;23275;48.914;12.566;2023-07-30T02:56:29;5.63;;;3.53;;
37409;SDS011;23275;48.914;12.566;2023-07-30T02:58:54;7.20;;;3.20;;
37409;SDS011;23275;48.914;12.566;2023-07-30T03:01:20;4.55;;;2.92;;
37409;SDS011;23275;48.914;12.566;2023-07-30T03:03:46;5.57;;;3.22;;
37409;SDS011;23275;48.914;12.566;2023-07-30T03:06:11;4.38;;;2.50;;
37409;SDS011;23275;48.914;12.566;2023-07-30T03:08:37;5.20;;;3.05;;
37409;SDS011;23275;48.914;12.566;2023-07-30T03:11:03;6.68;;;3.28;;
37409;SDS011;23275;48.914;12.566;2023-07-30T03:13:29;7.03;;;2.97;;
37409;SDS011;23275;48.914;12.566;2023-07-30T03:15:55;9.18;;;3.63;;
37409;SDS011;23275;48.914;12.566;2023-07-30T03:18:20;10.63;;;3.20;;
37409;SDS011;23275;48.914;12.566;2023-07-30T03:20:46;4.95;;;3.38;;
37409;SDS011;23275;48.914;12.566;2023-07-30T03:23:11;9.05;;;6.60;;
37409;SDS011;23275;48.914;12.566;2023-07-30T03:25:37;9.23;;;4.93;;
37409;SDS011;23275;48.914;12.566;2023-07-30T03:28:02;9.15;;;4.65;;
37409;SDS011;23275;48.914;12.566;2023-07-30T03:30:28;6.03;;;4.07;;
37409;SDS011;23275;48.914;12.566;2023-07-30T03:32:54;5.63;;;3.80;;
37409;SDS011;23275;48.914;12.566;2023-07-30T03:35:19;7.60;;;4.32;;
37409;SDS011;23275;48.914;12.566;2023-07-30T03:37:45;4.45;;;3.00;;
37409;SDS011;23275;48.914;12.566;2023-07-30T03:40:10;6.90;;;3.72;;
37409;SDS011;23275;48.914;12.566;2023-07-30T03:42:36;5.25;;;3.67;;
37409;SDS011;23275;48.914;12.566;2023-07-30T03:45:01;5.35;;;3.38;;
37409;SDS011;23275;48.914;12.566;2023-07-30T03:47:27;6.93;;;3.22;;
37409;SDS011;23275;48.914;12.566;2023-07-30T03:49:53;4.75;;;3.17;;
37409;SDS011;23275;48.914;12.566;2023-07-30T03:52:18;10.15;;;3.35;;
37409;SDS011;23275;48.914;12.566;2023-07-30T03:54:44;4.68;;;3.30;;
37409;SDS011;23275;48.914;12.566;2023-07-30T03:57:09;7.22;;;3.10;;
37409;SDS011;23275;48.914;12.566;2023-07-30T03:59:35;6.25;;;3.00;;
37409;SDS011;23275;48.914;12.566;2023-07-30T04:02:00;6.93;;;3.55;;
37409;SDS011;23275;48.914;12.566;2023-07-30T04:04:26;6.72;;;3.28;;
37409;SDS011;23275;48.914;12.566;2023-07-30T04:06:51;5.75;;;3.30;;
37409;SDS011;23275;48.914;12.566;2023-07-30T04:09:17;4.43;;;2.75;;
37409;SDS011;23275;48.914;12.566;2023-07-30T04:11:42;4.50;;;3.05;;
37409;SDS011;23275;48.914;12.566;2023-07-30T04:14:08;6.32;;;3.08;;
37409;SDS011;23275;48.914;12.566;2023-07-30T04:16:34;4.40;;;2.50;;
37409;SDS011;23275;48.914;12.566;2023-07-30T04:19:00;4.78;;;2.38;;
37409;SDS011;23275;48.914;12.566;2023-07-30T04:21:26;4.25;;;2.60;;
37409;SDS011;23275;48.914;12.566;2023-07-30T04:23:51;4.65;;;2.72;;
37409;SDS011;23275;48.914;12.566;2023-07-30T04:26:17;4.93;;;2.63;;
37409;SDS011;23275;48.914;12.566;2023-07-30T04:28:42;5.15;;;2.10;;
37409;SDS011;23275;48.914;12.566;2023-07-30T04:31:08;4.78;;;2.50;;
37409;SDS011;23275;48.914;12.566;2023-07-30T04:33:33;4.15;;;2.22;;
37409;SDS011;23275;48.914;12.566;2023-07-30T04:35:59;2.83;;;1.63;;
37409;SDS011;23275;48.914;12.566;2023-07-30T04:38:24;3.00;;;2.00;;
37409;SDS011;23275;48.914;12.566;2023-07-30T04:40:50;3.22;;;1.90;;
37409;SDS011;23275;48.914;12.566;2023-07-30T04:43:15;4.75;;;1.75;;
37409;SDS011;23275;48.914;12.566;2023-07-30T04:45:42;3.88;;;1.60;;
37409;SDS011;23275;48.914;12.566;2023-07-30T04:48:07;3.35;;;1.50;;
37409;SDS011;23275;48.914;12.566;2023-07-30T04:50:33;4.30;;;1.60;;
37409;SDS011;23275;48.914;12.566;2023-07-30T04:52:58;2.92;;;1.55;;
37409;SDS011;23275;48.914;12.566;2023-07-30T04:55:24;3.03;;;1.52;;
37409;SDS011;23275;48.914;12.566;2023-07-30T04:57:50;4.18;;;1.20;;
37409;SDS011;23275;48.914;12.566;2023-07-30T05:00:15;3.42;;;1.27;;
37409;SDS011;23275;48.914;12.566;2023-07-30T05:02:41;2.28;;;1.00;;
37409;SDS011;23275;48.914;12.566;2023-07-30T05:05:07;2.80;;;1.27;;
37409;SDS011;23275;48.914;12.566;2023-07-30T05:07:33;4.50;;;1.27;;
37409;SDS011;23275;48.914;12.566;2023-07-30T05:09:58;2.80;;;0.90;;
37409;SDS011;23275;48.914;12.566;2023-07-30T05:12:24;2.13;;;0.88;;
37409;SDS011;23275;48.914;12.566;2023-07-30T05:14:49;3.92;;;1.38;;
37409;SDS011;23275;48.914;12.566;2023-07-30T05:17:15;4.00;;;1.10;;
37409;SDS011;23275;48.914;12.566;2023-07-30T05:19:40;1.40;;;0.82;;
37409;SDS011;23275;48.914;12.566;2023-07-30T05:22:06;2.35;;;1.00;;
37409;SDS011;23275;48.914;12.566;2023-07-30T05:24:32;1.95;;;0.90;;
37409;SDS011;23275;48.914;12.566;2023-07-30T05:26:58;3.05;;;1.17;;
37409;SDS011;23275;48.914;12.566;2023-07-30T05:29:24;1.50;;;0.90;;
37409;SDS011;23275;48.914;12.566;2023-07-30T05:31:49;4.30;;;1.20;;
37409;SDS011;23275;48.914;12.566;2023-07-30T05:34:15;2.05;;;0.90;;
37409;SDS011;23275;48.914;12.566;2023-07-30T05:36:40;3.10;;;1.20;;
37409;SDS011;23275;48.914;12.566;2023-07-30T05:39:06;3.28;;;1.10;;
37409;SDS011;23275;48.914;12.566;2023-07-30T05:41:31;2.85;;;1.20;;
37409;SDS011;23275;48.914;12.566;2023-07-30T05:43:57;1.65;;;1.00;;
37409;SDS011;23275;48.914;12.566;2023-07-30T05:46:22;2.80;;;1.00;;
37409;SDS011;23275;48.914;12.566;2023-07-30T05:48:48;1.27;;;0.70;;
37409;SDS011;23275;48.914;12.566;2023-07-30T05:51:13;2.33;;;0.90;;
37409;SDS011;23275;48.914;12.566;2023-07-30T05:53:39;4.50;;;0.82;;
37409;SDS011;23275;48.914;12.566;2023-07-30T05:56:05;2.80;;;0.90;;
37409;SDS011;23275;48.914;12.566;2023-07-30T05:58:30;2.70;;;1.10;;
37409;SDS011;23275;48.914;12.566;2023-07-30T06:00:56;1.73;;;0.70;;
37409;SDS011;23275;48.914;12.566;2023-07-30T06:03:21;1.98;;;0.93;;
37409;SDS011;23275;48.914;12.566;2023-07-30T06:05:47;2.33;;;0.80;;
37409;SDS011;23275;48.914;12.566;2023-07-30T06:08:13;1.73;;;0.90;;
37409;SDS011;23275;48.914;12.566;2023-07-30T06:10:38;4.05;;;0.82;;
37409;SDS011;23275;48.914;12.566;2023-07-30T06:13:05;2.78;;;0.90;;
37409;SDS011;23275;48.914;12.566;2023-07-30T06:15:31;3.63;;;0.80;;
37409;SDS011;23275;48.914;12.566;2023-07-30T06:17:57;4.65;;;1.92;;
37409;SDS011;23275;48.914;12.566;2023-07-30T06:20:23;2.97;;;1.00;;
37409;SDS011;23275;48.914;12.566;2023-07-30T06:22:48;2.03;;;0.88;;
37409;SDS011;23275;48.914;12.566;2023-07-30T06:25:14;3.97;;;1.00;;
37409;SDS011;23275;48.914;12.566;2023-07-30T06:27:40;2.00;;;1.00;;
37409;SDS011;23275;48.914;12.566;2023-07-30T06:30:06;2.28;;;0.88;;
37409;SDS011;23275;48.914;12.566;2023-07-30T06:32:32;1.70;;;0.93;;
37409;SDS011;23275;48.914;12.566;2023-07-30T06:34:57;1.75;;;0.90;;
37409;SDS011;23275;48.914;12.566;2023-07-30T06:37:23;2.05;;;1.00;;
37409;SDS011;23275;48.914;12.566;2023-07-30T06:39:49;1.58;;;0.88;;
37409;SDS011;23275;48.914;12.566;2023-07-30T06:42:14;2.75;;;0.93;;
37409;SDS011;23275;48.914;12.566;2023-07-30T06:44:45;3.05;;;0.90;;
37409;SDS011;23275;48.914;12.566;2023-07-30T06:47:15;2.85;;;1.20;;
37409;SDS011;23275;48.914;12.566;2023-07-30T06:49:42;3.40;;;0.90;;
37409;SDS011;23275;48.914;12.566;2023-07-30T06:52:08;2.85;;;1.10;;
37409;SDS011;23275;48.914;12.566;2023-07-30T06:54:33;3.30;;;1.10;;
37409;SDS011;23275;48.914;12.566;2023-07-30T06:56:59;2.55;;;0.90;;
37409;SDS011;23275;48.914;12.566;2023-07-30T06:59:24;1.70;;;0.90;;
37409;SDS011;23275;48.914;12.566;2023-07-30T07:01:50;2.72;;;1.10;;
37409;SDS011;23275;48.914;12.566;2023-07-30T07:04:15;3.10;;;0.98;;
37409;SDS011;23275;48.914;12.566;2023-07-30T07:06:41;2.33;;;1.00;;
37409;SDS011;23275;48.914;12.566;2023-07-30T07:09:06;1.85;;;0.80;;
37409;SDS011;23275;48.914;12.566;2023-07-30T07:11:32;3.55;;;1.20;;
37409;SDS011;23275;48.914;12.566;2023-07-30T07:13:57;2.10;;;1.00;;
37409;SDS011;23275;48.914;12.566;2023-07-30T07:16:23;3.42;;;0.98;;
37409;SDS011;23275;48.914;12.566;2023-07-30T07:18:48;3.05;;;1.10;;
37409;SDS011;23275;48.914;12.566;2023-07-30T07:21:14;2.92;;;1.15;;
37409;SDS011;23275;48.914;12.566;2023-07-30T07:23:40;4.05;;;1.00;;
37409;SDS011;23275;48.914;12.566;2023-07-30T07:26:05;1.88;;;1.00;;
37409;SDS011;23275;48.914;12.566;2023-07-30T07:28:31;3.35;;;1.10;;
37409;SDS011;23275;48.914;12.566;2023-07-30T07:30:56;4.10;;;1.27;;
37409;SDS011;23275;48.914;12.566;2023-07-30T07:33:22;3.83;;;1.00;;
37409;SDS011;23275;48.914;12.566;2023-07-30T07:35:47;4.50;;;1.20;;
37409;SDS011;23275;48.914;12.566;2023-07-30T07:38:13;3.47;;;1.10;;
37409;SDS011;23275;48.914;12.566;2023-07-30T07:40:39;2.72;;;1.10;;
37409;SDS011;23275;48.914;12.566;2023-07-30T07:43:05;2.00;;;1.17;;
37409;SDS011;23275;48.914;12.566;2023-07-30T07:45:32;2.72;;;1.50;;
37409;SDS011;23275;48.914;12.566;2023-07-30T07:47:58;5.57;;;1.58;;
37409;SDS011;23275;48.914;12.566;2023-07-30T07:50:23;3.45;;;1.58;;
37409;SDS011;23275;48.914;12.566;2023-07-30T07:52:49;2.80;;;1.48;;
37409;SDS011;23275;48.914;12.566;2023-07-30T07:55:14;8.73;;;1.70;;
37409;SDS011;23275;48.914;12.566;2023-07-30T07:57:40;3.90;;;1.50;;
37409;SDS011;23275;48.914;12.566;2023-07-30T08:00:06;4.32;;;1.75;;
37409;SDS011;23275;48.914;12.566;2023-07-30T08:02:32;7.97;;;1.42;;
37409;SDS011;23275;48.914;12.566;2023-07-30T08:04:57;2.10;;;1.25;;
37409;SDS011;23275;48.914;12.566;2023-07-30T08:07:23;2.53;;;1.52;;
37409;SDS011;23275;48.914;12.566;2023-07-30T08:09:48;3.40;;;1.38;;
37409;SDS011;23275;48.914;12.566;2023-07-30T08:12:16;5.13;;;1.70;;
37409;SDS011;23275;48.914;12.566;2023-07-30T08:14:42;8.35;;;5.03;;
37409;SDS011;23275;48.914;12.566;2023-07-30T08:17:07;6.22;;;4.20;;
37409;SDS011;23275;48.914;12.566;2023-07-30T08:19:33;3.97;;;2.42;;
37409;SDS011;23275;48.914;12.566;2023-07-30T08:21:58;3.47;;;1.90;;
37409;SDS011;23275;48.914;12.566;2023-07-30T08:24:24;4.88;;;2.03;;
37409;SDS011;23275;48.914;12.566;2023-07-30T08:26:49;5.28;;;2.03;;
37409;SDS011;23275;48.914;12.566;2023-07-30T08:29:15;3.17;;;1.88;;
37409;SDS011;23275;48.914;12.566;2023-07-30T08:31:41;7.40;;;1.77;;
37409;SDS011;23275;48.914;12.566;2023-07-30T08:34:07;3.13;;;1.50;;
37409;SDS011;23275;48.914;12.566;2023-07-30T08:36:32;2.55;;;1.50;;
37409;SDS011;23275;48.914;12.566;2023-07-30T08:38:58;5.40;;;1.85;;
37409;SDS011;23275;48.914;12.566;2023-07-30T08:41:24;3.40;;;1.65;;
37409;SDS011;23275;48.914;12.566;2023-07-30T08:43:49;3.08;;;2.42;;
37409;SDS011;23275;48.914;12.566;2023-07-30T08:46:16;5.30;;;2.10;;
37409;SDS011;23275;48.914;12.566;2023-07-30T08:48:42;4.38;;;2.03;;
37409;SDS011;23275;48.914;12.566;2023-07-30T08:51:08;3.08;;;1.92;;
37409;SDS011;23275;48.914;12.566;2023-07-30T08:53:34;3.03;;;1.73;;
37409;SDS011;23275;48.914;12.566;2023-07-30T08:56:00;5.82;;;1.48;;
37409;SDS011;23275;48.914;12.566;2023-07-30T08:58:27;1.85;;;1.20;;
37409;SDS011;23275;48.914;12.566;2023-07-30T09:00:55;3.45;;;1.35;;
37409;SDS011;23275;48.914;12.566;2023-07-30T09:03:22;3.53;;;1.45;;
37409;SDS011;23275;48.914;12.566;2023-07-30T09:05:50;9.15;;;1.98;;
37409;SDS011;23275;48.914;12.566;2023-07-30T09:08:16;5.53;;;1.50;;
37409;SDS011;23275;48.914;12.566;2023-07-30T09:10:43;1.95;;;1.30;;
37409;SDS011;23275;48.914;12.566;2023-07-30T09:13:08;2.25;;;1.42;;
37409;SDS011;23275;48.914;12.566;2023-07-30T09:15:37;6.00;;;3.88;;
37409;SDS011;23275;48.914;12.566;2023-07-30T09:18:06;6.83;;;5.20;;
37409;SDS011;23275;48.914;12.566;2023-07-30T09:23:06;6.65;;;1.70;;
37409;SDS011;23275;48.914;12.566;2023-07-30T09:25:32;5.93;;;1.10;;
37409;SDS011;23275;48.914;12.566;2023-07-30T09:27:59;1.88;;;1.08;;
37409;SDS011;23275;48.914;12.566;2023-07-30T09:30:25;3.53;;;0.90;;
37409;SDS011;23275;48.914;12.566;2023-07-30T09:32:52;2.30;;;1.25;;
37409;SDS011;23275;48.914;12.566;2023-07-30T09:35:18;3.35;;;1.20;;
37409;SDS011;23275;48.914;12.566;2023-07-30T09:37:44;2.60;;;1.05;;
37409;SDS011;23275;48.914;12.566;2023-07-30T09:40:11;1.88;;;1.00;;
37409;SDS011;23275;48.914;12.566;2023-07-30T09:42:42;1.88;;;0.88;;
37409;SDS011;23275;48.914;12.566;2023-07-30T09:47:45;2.17;;;0.80;;
37409;SDS011;23275;48.914;12.566;2023-07-30T09:50:12;1.52;;;0.80;;
37409;SDS011;23275;48.914;12.566;2023-07-30T09:52:38;4.28;;;1.17;;
37409;SDS011;23275;48.914;12.566;2023-07-30T09:55:06;2.13;;;1.27;;
37409;SDS011;23275;48.914;12.566;2023-07-30T09:57:32;2.03;;;0.90;;
37409;SDS011;23275;48.914;12.566;2023-07-30T09:59:58;1.73;;;0.73;;
37409;SDS011;23275;48.914;12.566;2023-07-30T10:02:24;2.55;;;1.00;;
37409;SDS011;23275;48.914;12.566;2023-07-30T10:04:52;2.38;;;1.00;;
37409;SDS011;23275;48.914;12.566;2023-07-30T10:07:22;1.75;;;0.93;;
37409;SDS011;23275;48.914;12.566;2023-07-30T10:09:49;2.70;;;0.95;;
37409;SDS011;23275;48.914;12.566;2023-07-30T10:12:23;1.98;;;0.90;;
37409;SDS011;23275;48.914;12.566;2023-07-30T10:14:52;2.03;;;0.98;;
37409;SDS011;23275;48.914;12.566;2023-07-30T10:17:18;2.65;;;0.90;;
37409;SDS011;23275;48.914;12.566;2023-07-30T10:19:47;2.13;;;0.90;;
37409;SDS011;23275;48.914;12.566;2023-07-30T10:24:40;3.10;;;0.82;;
37409;SDS011;23275;48.914;12.566;2023-07-30T10:27:06;1.70;;;0.70;;
37409;SDS011;23275;48.914;12.566;2023-07-30T10:29:35;1.92;;;0.95;;
37409;SDS011;23275;48.914;12.566;2023-07-30T10:32:01;1.80;;;1.10;;
37409;SDS011;23275;48.914;12.566;2023-07-30T10:34:43;3.67;;;0.98;;
37409;SDS011;23275;48.914;12.566;2023-07-30T10:37:19;2.15;;;0.98;;
37409;SDS011;23275;48.914;12.566;2023-07-30T10:39:48;3.08;;;1.00;;
37409;SDS011;23275;48.914;12.566;2023-07-30T10:42:14;1.85;;;1.00;;
37409;SDS011;23275;48.914;12.566;2023-07-30T10:44:43;2.95;;;1.20;;
37409;SDS011;23275;48.914;12.566;2023-07-30T10:47:09;1.83;;;1.13;;
37409;SDS011;23275;48.914;12.566;2023-07-30T10:49:36;3.63;;;1.30;;
37409;SDS011;23275;48.914;12.566;2023-07-30T10:52:13;1.98;;;1.00;;
37409;SDS011;23275;48.914;12.566;2023-07-30T10:54:38;3.15;;;0.88;;
37409;SDS011;23275;48.914;12.566;2023-07-30T10:57:04;1.83;;;0.90;;
37409;SDS011;23275;48.914;12.566;2023-07-30T10:59:36;2.30;;;1.20;;
37409;SDS011;23275;48.914;12.566;2023-07-30T11:02:02;5.00;;;1.30;;
37409;SDS011;23275;48.914;12.566;2023-07-30T11:04:28;3.08;;;1.30;;
37409;SDS011;23275;48.914;12.566;2023-07-30T11:06:54;3.40;;;1.00;;
37409;SDS011;23275;48.914;12.566;2023-07-30T11:09:20;1.85;;;1.00;;
37409;SDS011;23275;48.914;12.566;2023-07-30T11:11:47;2.35;;;1.15;;
37409;SDS011;23275;48.914;12.566;2023-07-30T11:14:16;1.80;;;1.13;;
37409;SDS011;23275;48.914;12.566;2023-07-30T11:16:51;3.90;;;1.13;;
37409;SDS011;23275;48.914;12.566;2023-07-30T11:19:18;2.53;;;1.20;;
37409;SDS011;23275;48.914;12.566;2023-07-30T11:21:50;3.05;;;1.50;;
37409;SDS011;23275;48.914;12.566;2023-07-30T11:24:17;4.22;;;1.80;;
37409;SDS011;23275;48.914;12.566;2023-07-30T11:26:43;1.83;;;1.08;;
37409;SDS011;23275;48.914;12.566;2023-07-30T11:29:18;1.80;;;0.80;;
37409;SDS011;23275;48.914;12.566;2023-07-30T11:31:45;1.65;;;0.80;;
37409;SDS011;23275;48.914;12.566;2023-07-30T11:34:11;2.28;;;0.85;;
37409;SDS011;23275;48.914;12.566;2023-07-30T11:36:38;3.33;;;1.23;;
37409;SDS011;23275;48.914;12.566;2023-07-30T11:39:04;2.28;;;0.73;;
37409;SDS011;23275;48.914;12.566;2023-07-30T11:41:31;2.63;;;0.70;;
37409;SDS011;23275;48.914;12.566;2023-07-30T11:43:57;1.13;;;0.65;;
37409;SDS011;23275;48.914;12.566;2023-07-30T11:46:23;1.88;;;0.68;;
37409;SDS011;23275;48.914;12.566;2023-07-30T11:48:49;1.23;;;0.50;;
37409;SDS011;23275;48.914;12.566;2023-07-30T11:51:18;2.08;;;0.60;;
37409;SDS011;23275;48.914;12.566;2023-07-30T11:58:46;0.80;;;0.50;;
37409;SDS011;23275;48.914;12.566;2023-07-30T12:01:12;1.08;;;0.52;;
37409;SDS011;23275;48.914;12.566;2023-07-30T12:03:39;1.73;;;0.50;;
37409;SDS011;23275;48.914;12.566;2023-07-30T12:06:06;1.33;;;0.60;;
37409;SDS011;23275;48.914;12.566;2023-07-30T12:08:33;1.15;;;0.63;;
37409;SDS011;23275;48.914;12.566;2023-07-30T12:11:04;1.48;;;0.60;;
37409;SDS011;23275;48.914;12.566;2023-07-30T12:13:30;1.27;;;0.52;;
37409;SDS011;23275;48.914;12.566;2023-07-30T12:15:56;0.88;;;0.47;;
37409;SDS011;23275;48.914;12.566;2023-07-30T12:18:23;2.13;;;0.60;;
37409;SDS011;23275;48.914;12.566;2023-07-30T12:20:50;1.50;;;0.60;;
37409;SDS011;23275;48.914;12.566;2023-07-30T12:23:16;1.35;;;0.50;;
37409;SDS011;23275;48.914;12.566;2023-07-30T12:25:42;1.58;;;0.60;;
37409;SDS011;23275;48.914;12.566;2023-07-30T12:28:08;1.73;;;0.50;;
37409;SDS011;23275;48.914;12.566;2023-07-30T12:30:33;2.30;;;0.82;;
37409;SDS011;23275;48.914;12.566;2023-07-30T12:33:01;1.42;;;0.50;;
37409;SDS011;23275;48.914;12.566;2023-07-30T12:35:28;0.68;;;0.45;;
37409;SDS011;23275;48.914;12.566;2023-07-30T12:37:54;2.65;;;0.70;;
37409;SDS011;23275;48.914;12.566;2023-07-30T12:40:19;2.28;;;0.70;;
37409;SDS011;23275;48.914;12.566;2023-07-30T12:42:45;0.90;;;0.50;;
37409;SDS011;23275;48.914;12.566;2023-07-30T12:45:10;1.80;;;0.50;;
37409;SDS011;23275;48.914;12.566;2023-07-30T12:47:36;1.38;;;0.60;;
37409;SDS011;23275;48.914;12.566;2023-07-30T12:50:02;1.27;;;0.63;;
37409;SDS011;23275;48.914;12.566;2023-07-30T12:52:28;1.33;;;0.55;;
37409;SDS011;23275;48.914;12.566;2023-07-30T12:54:54;1.95;;;0.70;;
37409;SDS011;23275;48.914;12.566;2023-07-30T12:57:19;1.80;;;0.63;;
37409;SDS011;23275;48.914;12.566;2023-07-30T12:59:45;1.80;;;0.70;;
37409;SDS011;23275;48.914;12.566;2023-07-30T13:02:11;1.75;;;0.50;;
37409;SDS011;23275;48.914;12.566;2023-07-30T13:04:37;2.15;;;0.68;;
37409;SDS011;23275;48.914;12.566;2023-07-30T13:07:06;2.00;;;0.70;;
37409;SDS011;23275;48.914;12.566;2023-07-30T13:09:32;2.70;;;0.85;;
37409;SDS011;23275;48.914;12.566;2023-07-30T13:11:59;3.72;;;0.70;;
37409;SDS011;23275;48.914;12.566;2023-07-30T13:14:25;2.22;;;0.50;;
37409;SDS011;23275;48.914;12.566;2023-07-30T13:19:25;4.97;;;0.80;;
37409;SDS011;23275;48.914;12.566;2023-07-30T13:24:27;2.00;;;0.65;;
37409;SDS011;23275;48.914;12.566;2023-07-30T13:27:00;1.35;;;0.50;;
37409;SDS011;23275;48.914;12.566;2023-07-30T13:29:27;1.58;;;0.65;;
37409;SDS011;23275;48.914;12.566;2023-07-30T13:31:56;1.35;;;0.40;;
37409;SDS011;23275;48.914;12.566;2023-07-30T13:34:24;1.27;;;0.60;;
37409;SDS011;23275;48.914;12.566;2023-07-30T13:36:51;1.35;;;0.43;;
37409;SDS011;23275;48.914;12.566;2023-07-30T13:39:22;1.67;;;0.70;;
37409;SDS011;23275;48.914;12.566;2023-07-30T13:41:56;1.40;;;0.57;;
37409;SDS011;23275;48.914;12.566;2023-07-30T13:47:17;1.77;;;0.70;;
37409;SDS011;23275;48.914;12.566;2023-07-30T13:49:44;3.13;;;0.75;;
37409;SDS011;23275;48.914;12.566;2023-07-30T13:52:14;3.33;;;0.80;;
37409;SDS011;23275;48.914;12.566;2023-07-30T13:54:44;2.72;;;0.50;;
37409;SDS011;23275;48.914;12.566;2023-07-30T13:57:11;2.13;;;0.80;;
37409;SDS011;23275;48.914;12.566;2023-07-30T13:59:47;2.17;;;0.73;;
37409;SDS011;23275;48.914;12.566;2023-07-30T14:02:21;2.55;;;0.63;;
37409;SDS011;23275;48.914;12.566;2023-07-30T14:04:54;3.65;;;1.00;;
37409;SDS011;23275;48.914;12.566;2023-07-30T14:07:38;1.17;;;0.70;;
37409;SDS011;23275;48.914;12.566;2023-07-30T14:10:10;1.98;;;0.88;;
37409;SDS011;23275;48.914;12.566;2023-07-30T14:12:40;2.38;;;0.70;;
37409;SDS011;23275;48.914;12.566;2023-07-30T14:15:17;2.47;;;0.80;;
37409;SDS011;23275;48.914;12.566;2023-07-30T14:17:49;2.85;;;1.00;;
37409;SDS011;23275;48.914;12.566;2023-07-30T14:20:22;1.65;;;0.80;;
37409;SDS011;23275;48.914;12.566;2023-07-30T14:22:55;2.00;;;1.00;;
37409;SDS011;23275;48.914;12.566;2023-07-30T14:25:26;2.10;;;0.85;;
37409;SDS011;23275;48.914;12.566;2023-07-30T14:27:58;1.63;;;0.98;;
37409;SDS011;23275;48.914;12.566;2023-07-30T14:30:28;3.78;;;0.90;;
37409;SDS011;23275;48.914;12.566;2023-07-30T14:32:58;1.88;;;0.93;;
37409;SDS011;23275;48.914;12.566;2023-07-30T14:35:29;1.90;;;0.82;;
37409;SDS011;23275;48.914;12.566;2023-07-30T14:38:05;1.98;;;1.02;;
37409;SDS011;23275;48.914;12.566;2023-07-30T14:40:42;1.52;;;0.80;;
37409;SDS011;23275;48.914;12.566;2023-07-30T14:43:11;2.20;;;1.05;;
37409;SDS011;23275;48.914;12.566;2023-07-30T14:45:40;1.92;;;0.90;;
37409;SDS011;23275;48.914;12.566;2023-07-30T14:48:08;1.85;;;1.02;;
37409;SDS011;23275;48.914;12.566;2023-07-30T14:50:45;1.88;;;1.00;;